createdAt,value
2018-02-23T00:00:23.171Z,100123.06
2018-02-23T00:02:50.838Z,100124.97
2018-02-23T00:05:18.484Z,100122.98
2018-02-23T00:07:47.979Z,100125.13
2018-02-23T00:10:15.711Z,100127.72
2018-02-23T00:12:43.278Z,100127.00
2018-02-23T00:15:10.889Z,100126.55
2018-02-23T00:17:38.518Z,100123.76
2018-02-23T00:20:06.087Z,100124.13
2018-02-23T00:22:41.654Z,100128.75
2018-02-23T00:25:09.224Z,100123.41
2018-02-23T00:27:36.822Z,100126.91
2018-02-23T00:30:04.452Z,100129.92
2018-02-23T00:32:32.008Z,100123.58
2018-02-23T00:34:59.573Z,100131.38
2018-02-23T00:37:27.219Z,100132.25
2018-02-23T00:39:54.810Z,100130.92
2018-02-23T00:42:23.247Z,100127.14
2018-02-23T00:44:50.952Z,100128.53
2018-02-23T00:47:18.514Z,100121.98
2018-02-23T00:49:46.087Z,100124.87
2018-02-23T00:52:13.710Z,100128.63
2018-02-23T00:54:41.278Z,100118.69
2018-02-23T00:57:08.852Z,100123.43
2018-02-23T00:59:36.538Z,100124.16
2018-02-23T01:02:04.114Z,100126.88
2018-02-23T01:04:31.704Z,100119.56
2018-02-23T01:06:59.351Z,100119.02
2018-02-23T01:09:26.918Z,100114.41
2018-02-23T01:11:54.490Z,100120.56
2018-02-23T01:14:22.187Z,100121.89
2018-02-23T01:16:49.769Z,100119.59
2018-02-23T01:19:17.411Z,100120.02
2018-02-23T01:21:45.028Z,100114.77
2018-02-23T01:24:12.656Z,100118.84
2018-02-23T01:26:40.290Z,100120.84
2018-02-23T01:29:07.899Z,100126.81
2018-02-23T01:31:35.462Z,100117.84
2018-02-23T01:34:03.034Z,100113.02
2018-02-23T01:36:30.658Z,100111.08
2018-02-23T01:38:58.222Z,100108.19
2018-02-23T01:41:25.852Z,100110.78
2018-02-23T01:43:53.474Z,100105.86
2018-02-23T01:46:21.108Z,100108.39
2018-02-23T01:48:48.686Z,100101.72
2018-02-23T01:51:16.326Z,100100.52
2018-02-23T01:53:43.906Z,100101.00
2018-02-23T01:56:11.479Z,100102.93
2018-02-23T01:58:39.098Z,100101.09
2018-02-23T02:01:06.733Z,100098.16
2018-02-23T02:03:34.337Z,100095.92
2018-02-23T02:06:01.954Z,100094.11
2018-02-23T02:08:29.503Z,100098.12
2018-02-23T02:10:57.071Z,100094.50
2018-02-23T02:13:24.712Z,100088.48
2018-02-23T02:15:52.277Z,100081.33
2018-02-23T02:18:19.913Z,100078.14
2018-02-23T02:20:47.534Z,100081.27
2018-02-23T02:23:15.241Z,100087.08
2018-02-23T02:25:42.818Z,100086.73
2018-02-23T02:28:10.446Z,100085.02
2018-02-23T02:30:38.028Z,100091.54
2018-02-23T02:33:05.604Z,100094.87
2018-02-23T02:35:33.222Z,100095.91
2018-02-23T02:38:00.787Z,100097.69
2018-02-23T02:40:28.353Z,100090.16
2018-02-23T02:42:56.052Z,100100.47
2018-02-23T02:45:23.659Z,100093.53
2018-02-23T02:47:51.299Z,100094.37
2018-02-23T02:50:19.012Z,100094.55
2018-02-23T02:52:46.586Z,100094.31
2018-02-23T02:55:14.210Z,100091.52
2018-02-23T02:57:41.829Z,100087.00
2018-02-23T03:00:09.394Z,100094.08
2018-02-23T03:02:36.963Z,100095.34
2018-02-23T03:05:04.595Z,100099.25
2018-02-23T03:07:32.173Z,100100.81
2018-02-23T03:09:59.743Z,100099.61
2018-02-23T03:12:27.427Z,100091.05
2018-02-23T03:14:55.046Z,100091.95
2018-02-23T03:17:22.632Z,100097.38
2018-02-23T03:19:50.260Z,100098.23
2018-02-23T03:22:17.895Z,100095.63
2018-02-23T03:24:45.567Z,100100.93
2018-02-23T03:27:13.187Z,100091.54
2018-02-23T03:29:40.764Z,100096.84
2018-02-23T03:32:08.394Z,100100.47
2018-02-23T03:34:36.019Z,100106.81
2018-02-23T03:37:03.582Z,100103.77
2018-02-23T03:39:31.163Z,100100.75
2018-02-23T03:41:58.790Z,100104.85
2018-02-23T03:44:26.369Z,100102.92
2018-02-23T03:46:53.939Z,100103.36
2018-02-23T03:49:21.570Z,100101.34
2018-02-23T03:51:49.200Z,100098.99
2018-02-23T03:54:16.770Z,100097.06
2018-02-23T03:56:44.403Z,100094.89
2018-02-23T03:59:11.970Z,100102.08
2018-02-23T04:01:39.538Z,100101.41
2018-02-23T04:04:07.228Z,100097.06
2018-02-23T04:06:34.799Z,100100.99
2018-02-23T04:09:02.368Z,100103.38
2018-02-23T04:11:30.004Z,100102.69
2018-02-23T04:13:57.583Z,100115.42
2018-02-23T04:16:25.150Z,100109.05
2018-02-23T04:18:52.775Z,100113.03
2018-02-23T04:21:20.404Z,100112.14
2018-02-23T04:23:47.972Z,100118.95
2018-02-23T04:26:15.658Z,100113.95
2018-02-23T04:28:43.277Z,100114.02
2018-02-23T04:31:10.851Z,100113.41
2018-02-23T04:33:38.539Z,100113.69
2018-02-23T04:36:06.133Z,100114.17
2018-02-23T04:38:33.708Z,100117.67
2018-02-23T04:41:01.343Z,100117.12
2018-02-23T04:43:28.905Z,100114.61
2018-02-23T04:45:56.466Z,100122.59
2018-02-23T04:48:24.092Z,100124.08
2018-02-23T04:50:51.729Z,100120.46
2018-02-23T04:53:19.290Z,100119.09
2018-02-23T04:55:46.906Z,100119.44
2018-02-23T04:58:14.481Z,100125.05
2018-02-23T05:00:42.107Z,100131.81
2018-02-23T05:03:09.727Z,100124.40
2018-02-23T05:05:37.324Z,100132.46
2018-02-23T05:08:04.887Z,100140.83
2018-02-23T05:10:32.527Z,100134.61
2018-02-23T05:13:00.171Z,100136.73
2018-02-23T05:15:27.796Z,100136.52
2018-02-23T05:17:55.436Z,100141.08
2018-02-23T05:20:23.019Z,100158.83
2018-02-23T05:22:50.591Z,100158.77
2018-02-23T05:25:18.291Z,100159.05
2018-02-23T05:27:45.877Z,100157.96
2018-02-23T05:30:13.456Z,100161.52
2018-02-23T05:32:41.191Z,100168.78
2018-02-23T05:35:08.835Z,100167.48
2018-02-23T05:37:36.410Z,100169.02
2018-02-23T05:40:04.046Z,100174.12
2018-02-23T05:42:31.614Z,100169.48
2018-02-23T05:44:59.234Z,100175.09
2018-02-23T05:47:26.862Z,100176.36
2018-02-23T05:49:54.434Z,100180.61
2018-02-23T05:52:22.011Z,100175.14
2018-02-23T05:54:49.691Z,100172.80
2018-02-23T05:57:17.327Z,100178.17
2018-02-23T05:59:44.899Z,100177.91
2018-02-23T06:02:12.532Z,100180.14
2018-02-23T06:04:40.114Z,100188.20
2018-02-23T06:07:07.754Z,100190.38
2018-02-23T06:09:35.439Z,100189.05
2018-02-23T06:12:03.068Z,100189.41
2018-02-23T06:14:30.711Z,100197.69
2018-02-23T06:16:58.409Z,100195.25
2018-02-23T06:19:31.651Z,100194.83
2018-02-23T06:21:59.324Z,100198.94
2018-02-23T06:24:26.901Z,100197.03
2018-02-23T06:26:54.470Z,100198.08
2018-02-23T06:29:22.144Z,100202.98
2018-02-23T06:31:49.722Z,100200.53
2018-02-23T06:34:17.351Z,100212.08
2018-02-23T06:36:44.987Z,100207.06
2018-02-23T06:39:12.559Z,100200.91
2018-02-23T06:41:40.130Z,100197.19
2018-02-23T06:44:07.736Z,100205.53
2018-02-23T06:46:35.305Z,100213.11
2018-02-23T06:49:02.871Z,100210.84
2018-02-23T06:51:30.555Z,100211.94
2018-02-23T06:53:58.179Z,100209.42
2018-02-23T06:56:25.811Z,100211.48
2018-02-23T06:58:53.508Z,100210.15
2018-02-23T07:01:21.150Z,100215.19
2018-02-23T07:03:48.819Z,100212.53
2018-02-23T07:06:16.423Z,100214.06
2018-02-23T07:08:43.991Z,100217.64
2018-02-23T07:11:11.583Z,100215.73
2018-02-23T07:13:39.280Z,100220.58
2018-02-23T07:16:06.981Z,100219.66
2018-02-23T07:18:34.561Z,100219.89
2018-02-23T07:21:02.277Z,100225.02
2018-02-23T07:23:29.914Z,100224.05
2018-02-23T07:25:57.584Z,100232.52
2018-02-23T07:28:25.273Z,100225.62
2018-02-23T07:30:52.917Z,100228.36
2018-02-23T07:33:20.485Z,100228.49
2018-02-23T07:35:48.179Z,100229.00
2018-02-23T07:38:15.821Z,100227.30
2018-02-23T07:40:43.399Z,100233.59
2018-02-23T07:43:11.030Z,100225.55
2018-02-23T07:45:38.613Z,100229.48
2018-02-23T07:48:06.188Z,100228.01
2018-02-23T07:50:33.859Z,100230.12
2018-02-23T07:53:01.543Z,100221.11
2018-02-23T07:55:29.110Z,100225.24
2018-02-23T07:57:56.738Z,100231.16
2018-02-23T08:00:24.351Z,100228.34
2018-02-23T08:02:51.912Z,100226.32
2018-02-23T08:05:19.547Z,100228.03
2018-02-23T08:07:47.121Z,100227.23
2018-02-23T08:10:14.761Z,100224.92
2018-02-23T08:12:42.394Z,100227.71
2018-02-23T08:15:10.072Z,100228.07
2018-02-23T08:17:37.660Z,100222.89
2018-02-23T08:20:05.317Z,100219.80
2018-02-23T08:22:32.926Z,100222.64
2018-02-23T08:25:00.559Z,100212.36
2018-02-23T08:27:28.245Z,100218.59
2018-02-23T08:29:55.825Z,100220.15
2018-02-23T08:32:23.464Z,100213.91
2018-02-23T08:34:51.111Z,100223.77
2018-02-23T08:37:18.742Z,100219.48
2018-02-23T08:39:46.319Z,100220.63
2018-02-23T08:42:13.963Z,100222.80
2018-02-23T08:44:41.538Z,100228.00
2018-02-23T08:47:09.119Z,100226.16
2018-02-23T08:49:36.816Z,100223.56
2018-02-23T08:52:04.394Z,100221.81
2018-02-23T08:54:31.970Z,100220.32
2018-02-23T08:56:59.606Z,100214.11
2018-02-23T08:59:27.190Z,100212.68
2018-02-23T09:01:54.811Z,100208.45
2018-02-23T09:04:22.443Z,100209.61
2018-02-23T09:06:50.011Z,100211.44
2018-02-23T09:09:17.583Z,100214.98
2018-02-23T09:11:45.297Z,100210.61
2018-02-23T09:14:12.984Z,100213.14
2018-02-23T09:16:40.615Z,100214.89
2018-02-23T09:19:08.301Z,100214.06
2018-02-23T09:21:35.882Z,100210.95
2018-02-23T09:24:03.448Z,100210.81
2018-02-23T09:26:31.087Z,100209.56
2018-02-23T09:28:58.660Z,100207.75
2018-02-23T09:31:26.336Z,100211.31
2018-02-23T09:34:05.789Z,100210.69
2018-02-23T09:36:33.358Z,100206.91
2018-02-23T09:39:01.007Z,100204.59
2018-02-23T09:41:28.637Z,100198.95
2018-02-23T09:43:56.283Z,100197.36
2018-02-23T09:46:23.927Z,100193.48
2018-02-23T09:48:51.565Z,100189.59
2018-02-23T09:51:19.199Z,100188.82
2018-02-23T09:53:46.778Z,100185.69
2018-02-23T09:56:14.544Z,100183.63
2018-02-23T09:58:42.119Z,100183.98
2018-02-23T10:01:09.712Z,100177.80
2018-02-23T10:03:37.464Z,100168.20
2018-02-23T10:06:05.227Z,100172.10
2018-02-23T10:08:32.808Z,100169.38
2018-02-23T10:11:00.442Z,100168.52
2018-02-23T10:13:28.020Z,100166.30
2018-02-23T10:15:55.650Z,100165.14
2018-02-23T10:18:23.269Z,100163.09
2018-02-23T10:20:50.839Z,100159.30
2018-02-23T10:23:18.402Z,100155.69
2018-02-23T10:25:46.041Z,100153.47
2018-02-23T10:28:13.626Z,100151.38
2018-02-23T10:30:41.190Z,100154.20
2018-02-23T10:33:08.826Z,100154.19
2018-02-23T10:35:36.501Z,100143.13
2018-02-23T10:38:04.187Z,100140.80
2018-02-23T10:40:31.863Z,100144.78
2018-02-23T10:42:59.524Z,100144.83
2018-02-23T10:45:27.137Z,100139.38
2018-02-23T10:47:59.207Z,100137.15
2018-02-23T10:50:26.821Z,100137.64
2018-02-23T10:52:54.399Z,100135.53
2018-02-23T10:55:22.104Z,100134.45
2018-02-23T10:57:49.770Z,100129.12
2018-02-23T11:00:17.371Z,100129.73
2018-02-23T11:02:45.052Z,100123.89
2018-02-23T11:05:12.619Z,100124.05
2018-02-23T11:07:40.218Z,100123.13
2018-02-23T11:10:07.914Z,100114.28
2018-02-23T11:12:35.534Z,100121.98
2018-02-23T11:15:03.094Z,100117.08
2018-02-23T11:17:30.724Z,100110.53
2018-02-23T11:19:58.396Z,100104.59
2018-02-23T11:22:25.976Z,100100.14
2018-02-23T11:24:53.614Z,100097.80
2018-02-23T11:27:21.187Z,100093.28
2018-02-23T11:29:48.802Z,100097.08
2018-02-23T11:32:16.481Z,100090.80
2018-02-23T11:34:44.115Z,100083.84
2018-02-23T11:37:11.760Z,100084.01
2018-02-23T11:39:39.382Z,100084.50
2018-02-23T11:42:07.007Z,100080.95
2018-02-23T11:44:34.650Z,100074.70
2018-02-23T11:47:02.274Z,100083.09
2018-02-23T11:49:29.838Z,100075.48
2018-02-23T11:51:57.407Z,100074.32
2018-02-23T11:54:25.047Z,100073.46
2018-02-23T11:56:52.640Z,100072.36
2018-02-23T11:59:20.241Z,100081.09
2018-02-23T12:01:48.535Z,100070.91
2018-02-23T12:04:16.163Z,100070.28
2018-02-23T12:06:43.795Z,100072.49
2018-02-23T12:09:11.418Z,100074.87
2018-02-23T12:11:38.985Z,100068.60
2018-02-23T12:14:06.550Z,100078.80
2018-02-23T12:16:34.185Z,100072.09
2018-02-23T12:19:01.849Z,100072.83
2018-02-23T12:21:29.509Z,100072.25
2018-02-23T12:23:57.247Z,100064.11
2018-02-23T12:26:24.833Z,100058.53
2018-02-23T12:28:52.406Z,100058.95
2018-02-23T12:31:20.017Z,100062.25
2018-02-23T12:33:47.586Z,100056.71
2018-02-23T12:36:15.225Z,100059.10
2018-02-23T12:38:42.858Z,100063.78
2018-02-23T12:41:10.488Z,100060.84
2018-02-23T12:43:38.097Z,100056.27
2018-02-23T12:46:05.694Z,100062.53
2018-02-23T12:48:33.258Z,100061.92
2018-02-23T12:51:00.947Z,100063.37
2018-02-23T12:53:28.581Z,100060.61
2018-02-23T12:55:56.156Z,100058.90
2018-02-23T12:58:23.716Z,100060.45
2018-02-23T13:00:51.355Z,100055.85
2018-02-23T13:03:18.983Z,100057.80
2018-02-23T13:05:46.611Z,100056.01
2018-02-23T13:08:14.244Z,100060.94
2018-02-23T13:10:41.815Z,100056.75
2018-02-23T13:13:09.395Z,100059.55
2018-02-23T13:15:37.037Z,100055.41
2018-02-23T13:18:04.631Z,100056.74
2018-02-23T13:20:32.212Z,100047.17
2018-02-23T13:22:59.843Z,100053.50
2018-02-23T13:25:27.484Z,100054.69
2018-02-23T13:28:00.528Z,100055.91
2018-02-23T13:30:28.215Z,100049.64
2018-02-23T13:32:55.849Z,100055.23
2018-02-23T13:35:23.533Z,100048.06
2018-02-23T13:37:51.122Z,100057.48
2018-02-23T13:40:18.731Z,100054.91
2018-02-23T13:42:46.401Z,100049.75
2018-02-23T13:45:14.053Z,100050.55
2018-02-23T13:47:41.707Z,100049.70
2018-02-23T13:50:09.356Z,100043.69
2018-02-23T13:52:37.011Z,100047.69
2018-02-23T13:55:04.624Z,100041.98
2018-02-23T13:57:32.263Z,100044.30
2018-02-23T14:00:00.728Z,100043.34
2018-02-23T14:02:28.298Z,100052.08
2018-02-23T14:04:55.927Z,100048.14
2018-02-23T14:07:24.488Z,100052.73
2018-02-23T14:09:52.104Z,100047.80
2018-02-23T14:12:19.752Z,100049.78
2018-02-23T14:14:47.427Z,100047.60
2018-02-23T14:17:15.056Z,100048.22
2018-02-23T14:19:42.796Z,100042.88
2018-02-23T14:22:10.372Z,100049.98
2018-02-23T14:24:37.957Z,100045.73
2018-02-23T14:27:05.583Z,100043.50
2018-02-23T14:29:33.163Z,100044.48
2018-02-23T14:32:00.790Z,100048.26
2018-02-23T14:34:28.423Z,100048.04
2018-02-23T14:36:55.990Z,100045.58
2018-02-23T14:39:23.579Z,100045.88
2018-02-23T14:41:51.214Z,100036.33
2018-02-23T14:44:18.857Z,100042.87
2018-02-23T14:46:46.498Z,100042.02
2018-02-23T14:49:21.048Z,100044.27
2018-02-23T14:51:48.715Z,100039.53
2018-02-23T14:54:16.546Z,100040.80
2018-02-23T14:56:44.187Z,100044.76
2018-02-23T14:59:11.757Z,100041.70
2018-02-23T15:01:39.400Z,100045.09
2018-02-23T15:04:07.090Z,100042.67
2018-02-23T15:06:34.669Z,100044.42
2018-02-23T15:09:02.285Z,100043.33
2018-02-23T15:11:29.914Z,100043.95
2018-02-23T15:13:57.482Z,100054.06
2018-02-23T15:16:25.114Z,100041.16
2018-02-23T15:18:52.770Z,100051.41
2018-02-23T15:21:20.369Z,100041.00
2018-02-23T15:23:47.955Z,100045.52
2018-02-23T15:26:15.583Z,100046.00
2018-02-23T15:28:43.208Z,100046.52
2018-02-23T15:31:22.727Z,100050.59
2018-02-23T15:33:50.296Z,100047.50
2018-02-23T15:36:17.869Z,100049.67
2018-02-23T15:38:45.579Z,100048.20
2018-02-23T15:41:13.165Z,100051.08
2018-02-23T15:43:40.755Z,100053.25
2018-02-23T15:46:08.422Z,100043.15
2018-02-23T15:48:43.539Z,100041.95
2018-02-23T15:51:26.838Z,100044.69
2018-02-23T15:53:54.468Z,100046.88
2018-02-23T15:56:22.152Z,100045.97
2018-02-23T15:58:49.844Z,100044.89
2018-02-23T16:01:17.462Z,100048.45
2018-02-23T16:03:45.147Z,100049.19
2018-02-23T16:06:12.882Z,100050.30
2018-02-23T16:08:40.505Z,100049.66
2018-02-23T16:11:08.164Z,100042.80
2018-02-23T16:13:35.839Z,100046.39
2018-02-23T16:16:03.455Z,100047.48
2018-02-23T16:18:31.032Z,100046.09
2018-02-23T16:20:58.682Z,100053.03
2018-02-23T16:23:26.422Z,100052.56
2018-02-23T16:25:53.999Z,100055.47
2018-02-23T16:28:21.625Z,100054.80
2018-02-23T16:30:49.279Z,100061.39
2018-02-23T16:33:16.864Z,100055.54
2018-02-23T16:35:44.586Z,100058.92
2018-02-23T16:38:12.210Z,100065.08
2018-02-23T16:40:39.778Z,100067.39
2018-02-23T16:43:07.410Z,100065.13
2018-02-23T16:45:35.053Z,100072.66
2018-02-23T16:48:02.626Z,100065.70
2018-02-23T16:50:30.252Z,100073.92
2018-02-23T16:52:57.843Z,100071.81
2018-02-23T16:55:25.443Z,100075.23
2018-02-23T16:57:53.070Z,100070.32
2018-02-23T17:00:20.712Z,100079.84
2018-02-23T17:02:48.347Z,100074.96
2018-02-23T17:05:15.951Z,100077.08
2018-02-23T17:07:43.553Z,100072.56
2018-02-23T17:10:11.139Z,100068.67
2018-02-23T17:12:38.771Z,100071.50
2018-02-23T17:15:06.340Z,100072.27
2018-02-23T17:17:33.924Z,100076.91
2018-02-23T17:20:01.615Z,100072.85
2018-02-23T17:22:29.211Z,100072.19
2018-02-23T17:24:56.774Z,100072.09
2018-02-23T17:27:24.500Z,100075.05
2018-02-23T17:29:52.086Z,100078.27
2018-02-23T17:32:19.674Z,100076.02
2018-02-23T17:34:47.361Z,100075.34
2018-02-23T17:37:14.920Z,100073.78
2018-02-23T17:39:42.522Z,100069.10
2018-02-23T17:42:10.199Z,100067.64
2018-02-23T17:44:37.783Z,100067.28
2018-02-23T17:47:05.419Z,100072.05
2018-02-23T17:49:33.120Z,100070.72
2018-02-23T17:52:00.716Z,100064.75
2018-02-23T17:54:28.409Z,100067.61
2018-02-23T17:56:56.054Z,100066.05
2018-02-23T17:59:23.638Z,100065.21
2018-02-23T18:01:51.206Z,100067.06
2018-02-23T18:04:18.901Z,100061.47
2018-02-23T18:06:46.470Z,100061.95
2018-02-23T18:09:14.139Z,100061.98
2018-02-23T18:11:41.767Z,100061.13
2018-02-23T18:14:09.349Z,100050.56
2018-02-23T18:16:36.927Z,100060.45
2018-02-23T18:19:04.569Z,100052.78
2018-02-23T18:21:32.212Z,100049.56
2018-02-23T18:23:59.908Z,100044.44
2018-02-23T18:26:27.591Z,100045.02
2018-02-23T18:29:02.582Z,100040.37
2018-02-23T18:31:30.266Z,100031.20
2018-02-23T18:33:57.838Z,100042.08
2018-02-23T18:36:25.410Z,100029.41
2018-02-23T18:38:53.043Z,100032.41
2018-02-23T18:41:20.748Z,100027.66
2018-02-23T18:43:48.368Z,100033.88
2018-02-23T18:46:16.055Z,100033.66
2018-02-23T18:48:43.630Z,100039.64
2018-02-23T18:51:11.250Z,100035.66
2018-02-23T18:53:38.887Z,100038.09
2018-02-23T18:56:06.518Z,100036.91
2018-02-23T18:58:34.212Z,100034.11
2018-02-23T19:01:01.839Z,100037.13
2018-02-23T19:03:29.535Z,100038.65
2018-02-23T19:05:57.160Z,100043.09
2018-02-23T19:08:24.861Z,100043.23
2018-02-23T19:10:52.515Z,100037.48
2018-02-23T19:13:20.119Z,100040.13
2018-02-23T19:15:47.811Z,100037.46
2018-02-23T19:18:15.391Z,100035.98
2018-02-23T19:20:42.992Z,100040.41
2018-02-23T19:23:10.687Z,100033.87
2018-02-23T19:25:38.371Z,100033.94
2018-02-23T19:28:06.004Z,100035.62
2018-02-23T19:30:33.683Z,100029.31
2018-02-23T19:33:01.313Z,100020.74
2018-02-23T19:35:28.938Z,100023.70
2018-02-23T19:37:56.678Z,100020.46
2018-02-23T19:40:24.404Z,100022.08
2018-02-23T19:42:51.997Z,100021.58
2018-02-23T19:45:19.676Z,100021.57
2018-02-23T19:47:47.331Z,100022.64
2018-02-23T19:50:14.939Z,100019.14
2018-02-23T19:52:42.611Z,100010.92
2018-02-23T19:55:10.207Z,100018.42
2018-02-23T19:57:37.809Z,100012.36
2018-02-23T20:00:05.464Z,100007.23
2018-02-23T20:02:33.146Z,100006.33
2018-02-23T20:05:00.807Z,100003.54
2018-02-23T20:07:28.448Z,100007.18
2018-02-23T20:09:56.018Z,100007.31
2018-02-23T20:12:23.655Z,100001.56
2018-02-23T20:14:51.398Z,99995.30
2018-02-23T20:17:19.052Z,99986.47
2018-02-23T20:19:46.626Z,99995.46
2018-02-23T20:22:14.246Z,99998.19
2018-02-23T20:24:41.899Z,99991.20
2018-02-23T20:27:10.418Z,99980.55
2018-02-23T20:29:38.152Z,99978.37
2018-02-23T20:32:05.831Z,99975.58
2018-02-23T20:34:33.452Z,99971.84
2018-02-23T20:37:01.159Z,99967.37
2018-02-23T20:39:28.782Z,99966.88
2018-02-23T20:41:56.383Z,99963.17
2018-02-23T20:44:24.053Z,99961.70
2018-02-23T20:46:51.645Z,99961.07
2018-02-23T20:49:19.309Z,99959.77
2018-02-23T20:51:46.942Z,99956.54
2018-02-23T20:57:45.007Z,99950.44
2018-02-23T21:00:12.603Z,99948.24
2018-02-23T21:02:40.196Z,99948.88
2018-02-23T21:05:07.820Z,99943.00
2018-02-23T21:07:35.408Z,99940.14
2018-02-23T21:10:02.995Z,99945.95
2018-02-23T21:12:30.643Z,99940.76
2018-02-23T21:14:58.224Z,99936.70
2018-02-23T21:17:25.803Z,99937.25
2018-02-23T21:19:53.481Z,99936.63
2018-02-23T21:22:21.138Z,99921.26
2018-02-23T21:24:48.737Z,99925.06
2018-02-23T21:27:16.448Z,99921.47
2018-02-23T21:29:44.094Z,99914.61
2018-02-23T21:32:11.675Z,99917.43
2018-02-23T21:34:39.304Z,99908.09
2018-02-23T21:37:06.874Z,99912.30
2018-02-23T21:39:34.521Z,99904.58
2018-02-23T21:42:02.135Z,99906.95
2018-02-23T21:47:28.754Z,99903.69
2018-02-23T21:49:56.371Z,99903.67
2018-02-23T21:52:24.016Z,99910.62
2018-02-23T21:54:51.668Z,99905.84
2018-02-23T21:57:19.301Z,99907.88
2018-02-23T21:59:46.926Z,99914.59
2018-02-23T22:02:14.604Z,99911.66
2018-02-23T22:04:42.296Z,99919.09
2018-02-23T22:07:09.892Z,99912.09
2018-02-23T22:09:37.531Z,99915.72
2018-02-23T22:12:05.116Z,99914.53
2018-02-23T22:14:32.701Z,99911.23
2018-02-23T22:17:00.359Z,99914.95
2018-02-23T22:19:28.006Z,99915.23
2018-02-23T22:21:55.578Z,99918.45
2018-02-23T22:24:23.444Z,99912.99
2018-02-23T22:26:51.065Z,99911.85
2018-02-23T22:29:18.681Z,99915.84
2018-02-23T22:31:46.326Z,99910.89
2018-02-23T22:34:13.877Z,99909.33
2018-02-23T22:36:41.518Z,99899.16
2018-02-23T22:39:09.198Z,99908.48
2018-02-23T22:41:36.822Z,99904.98
2018-02-23T22:44:04.390Z,99908.10
2018-02-23T22:46:32.023Z,99907.33
2018-02-23T22:48:59.652Z,99908.34
2018-02-23T22:51:27.251Z,99900.63
2018-02-23T22:53:54.949Z,99904.06
2018-02-23T22:56:22.540Z,99907.98
2018-02-23T22:58:50.120Z,99908.67
2018-02-23T23:01:17.821Z,99911.91
2018-02-23T23:03:45.450Z,99912.86
2018-02-23T23:06:13.152Z,99905.59
2018-02-23T23:08:40.794Z,99908.02
2018-02-23T23:11:08.432Z,99907.08
2018-02-23T23:13:35.978Z,99909.19
2018-02-23T23:16:03.684Z,99911.53
2018-02-23T23:18:31.272Z,99907.60
2018-02-23T23:20:58.865Z,99913.51
2018-02-23T23:23:26.565Z,99912.38
2018-02-23T23:25:54.176Z,99914.55
2018-02-23T23:28:21.749Z,99908.48
2018-02-23T23:30:49.432Z,99914.22
2018-02-23T23:33:18.024Z,99917.20
2018-02-23T23:35:45.612Z,99917.69
2018-02-23T23:38:13.231Z,99916.03
2018-02-23T23:40:40.802Z,99925.70
2018-02-23T23:43:08.394Z,99925.77
2018-02-23T23:45:36.022Z,99918.98
2018-02-23T23:48:03.588Z,99918.14
2018-02-23T23:50:31.217Z,99920.13
2018-02-23T23:52:58.859Z,99915.55
2018-02-23T23:55:26.501Z,99910.42
2018-02-23T23:57:54.076Z,99918.27
